This is the latest recevied weather packets stored in our database for station/object KF4WSW-13. If no packets are shown the sender has not sent any weather packets the latest 10 day(s).
| Time | Temp. | Humidity | Pressure | Rain* | Wind** | Luminosity | Snow |
|---|---|---|---|---|---|---|---|
| 1778002840 | 28.89° C | 60% | 1013.9 hPa | 0 mm | - | 476 W/m² | - |
| 1778002537 | 27.78° C | 62% | 1014 hPa | 0 mm | - | 882 W/m² | - |
| 1778002233 | 27.78° C | 61% | 1014.1 hPa | 0 mm | - | 269 W/m² | - |
| 1778001931 | 27.78° C | 62% | 1013.9 hPa | 0 mm | - | 191 W/m² | - |
| 1778001627 | 27.78° C | 61% | 1013.9 hPa | 0 mm | - | 377 W/m² | - |
| 1778001322 | 27.78° C | 60% | 1014.1 hPa | 0 mm | - | 177 W/m² | - |
| 1778001020 | 28.33° C | 60% | 1014.1 hPa | 0 mm | - | 249 W/m² | - |
| 1778000717 | 28.33° C | 60% | 1014.2 hPa | 0 mm | - | 226 W/m² | - |
| 1778000413 | 28.89° C | 60% | 1014.2 hPa | 0 mm | - | 924 W/m² | - |
| 1778000108 | 27.78° C | 61% | 1014.5 hPa | 0 mm | - | 878 W/m² | - |
| 1777999804 | 27.78° C | 63% | 1014.3 hPa | 0 mm | - | 234 W/m² | - |
| 1777999500 | 27.78° C | 62% | 1014.4 hPa | 0 mm | - | 202 W/m² | - |
| 1777999198 | 27.78° C | 60% | 1014.4 hPa | 0 mm | - | 219 W/m² | - |
| 1777998896 | 27.78° C | 59% | 1014.5 hPa | 0 mm | - | 773 W/m² | - |
| 1777998596 | 27.22° C | 63% | 1014.4 hPa | 0 mm | - | 226 W/m² | - |
| 1777998291 | 27.22° C | 63% | 1014.4 hPa | 0 mm | - | 175 W/m² | - |
| 1777997988 | 27.22° C | 64% | 1014.5 hPa | 0 mm | - | 187 W/m² | - |
| 1777997684 | 27.22° C | 64% | 1014.4 hPa | 0 mm | - | 189 W/m² | - |
| 1777997382 | 27.22° C | 62% | 1014.5 hPa | 0 mm | - | 226 W/m² | - |
| 1777997080 | 26.67° C | 62% | 1014.6 hPa | 0 mm | - | 738 W/m² | - |
| 1777996776 | 26.67° C | 63% | 1014.5 hPa | 0 mm | - | 254 W/m² | - |
| 1777996473 | 26.67° C | 64% | 1014.4 hPa | 0 mm | - | 798 W/m² | - |
| 1777996169 | 27.78° C | 61% | 1014.7 hPa | 0 mm | - | 882 W/m² | - |
| 1777995866 | 26.67° C | 62% | 1014.5 hPa | 0 mm | - | 732 W/m² | - |
| 1777995562 | 25.56° C | 68% | 1014.5 hPa | 0 mm | - | 860 W/m² | - |
* Rain latest hour (hover to see other rain measurements)
** Current wind speed in m/s (hover to see current wind gust speed)